sensor_id;sensor_type;location;lat;lon;timestamp;temperature;humidity
4739;DHT22;2383;48.632;10.156;2024-01-06T00:03:37;6.30;99.90
4739;DHT22;2383;48.632;10.156;2024-01-06T00:07:39;6.30;99.90
4739;DHT22;2383;48.632;10.156;2024-01-06T00:11:41;6.40;99.90
4739;DHT22;2383;48.632;10.156;2024-01-06T00:15:43;6.40;99.90
4739;DHT22;2383;48.632;10.156;2024-01-06T00:19:45;6.40;99.90
4739;DHT22;2383;48.632;10.156;2024-01-06T00:23:52;6.30;99.90
4739;DHT22;2383;48.632;10.156;2024-01-06T00:27:54;5.90;99.90
4739;DHT22;2383;48.632;10.156;2024-01-06T00:31:56;6.10;99.90
4739;DHT22;2383;48.632;10.156;2024-01-06T00:35:58;6.00;99.90
4739;DHT22;2383;48.632;10.156;2024-01-06T00:40:00;6.00;99.90
4739;DHT22;2383;48.632;10.156;2024-01-06T00:44:02;6.00;99.90
4739;DHT22;2383;48.632;10.156;2024-01-06T00:48:04;5.80;99.90
4739;DHT22;2383;48.632;10.156;2024-01-06T00:52:07;4.70;99.90
4739;DHT22;2383;48.632;10.156;2024-01-06T00:56:09;5.40;99.90
4739;DHT22;2383;48.632;10.156;2024-01-06T01:00:11;5.60;99.90
4739;DHT22;2383;48.632;10.156;2024-01-06T01:04:13;5.00;99.90
4739;DHT22;2383;48.632;10.156;2024-01-06T01:08:15;5.30;99.90
4739;DHT22;2383;48.632;10.156;2024-01-06T01:12:17;5.20;99.90
4739;DHT22;2383;48.632;10.156;2024-01-06T01:16:19;5.00;99.90
4739;DHT22;2383;48.632;10.156;2024-01-06T01:20:21;5.40;99.90
4739;DHT22;2383;48.632;10.156;2024-01-06T01:24:23;5.70;99.90
4739;DHT22;2383;48.632;10.156;2024-01-06T01:28:25;5.70;99.90
4739;DHT22;2383;48.632;10.156;2024-01-06T01:32:26;5.80;99.90
4739;DHT22;2383;48.632;10.156;2024-01-06T01:36:29;5.90;99.90
4739;DHT22;2383;48.632;10.156;2024-01-06T01:40:31;5.90;99.90
4739;DHT22;2383;48.632;10.156;2024-01-06T01:44:33;6.00;99.90
4739;DHT22;2383;48.632;10.156;2024-01-06T01:48:35;6.00;99.90
4739;DHT22;2383;48.632;10.156;2024-01-06T01:52:37;5.90;99.90
4739;DHT22;2383;48.632;10.156;2024-01-06T01:56:40;6.00;99.90
4739;DHT22;2383;48.632;10.156;2024-01-06T02:00:43;6.20;99.90
4739;DHT22;2383;48.632;10.156;2024-01-06T02:04:45;6.10;99.90
4739;DHT22;2383;48.632;10.156;2024-01-06T02:08:47;6.10;99.90
4739;DHT22;2383;48.632;10.156;2024-01-06T02:12:49;6.00;99.90
4739;DHT22;2383;48.632;10.156;2024-01-06T02:16:53;6.10;99.90
4739;DHT22;2383;48.632;10.156;2024-01-06T02:20:58;6.00;99.90
4739;DHT22;2383;48.632;10.156;2024-01-06T02:25:01;6.00;99.90
4739;DHT22;2383;48.632;10.156;2024-01-06T02:29:03;6.20;99.90
4739;DHT22;2383;48.632;10.156;2024-01-06T02:33:05;6.00;99.90
4739;DHT22;2383;48.632;10.156;2024-01-06T02:37:07;6.00;99.90
4739;DHT22;2383;48.632;10.156;2024-01-06T02:41:09;5.90;99.90
4739;DHT22;2383;48.632;10.156;2024-01-06T02:45:11;6.00;99.90
4739;DHT22;2383;48.632;10.156;2024-01-06T02:49:13;6.10;99.90
4739;DHT22;2383;48.632;10.156;2024-01-06T02:53:15;6.00;99.90
4739;DHT22;2383;48.632;10.156;2024-01-06T02:57:17;5.80;99.90
4739;DHT22;2383;48.632;10.156;2024-01-06T03:01:19;5.90;99.90
4739;DHT22;2383;48.632;10.156;2024-01-06T03:05:21;5.90;99.90
4739;DHT22;2383;48.632;10.156;2024-01-06T03:09:23;6.00;99.90
4739;DHT22;2383;48.632;10.156;2024-01-06T03:13:25;6.00;99.90
4739;DHT22;2383;48.632;10.156;2024-01-06T03:17:27;5.90;99.90
4739;DHT22;2383;48.632;10.156;2024-01-06T03:21:30;5.90;99.90
4739;DHT22;2383;48.632;10.156;2024-01-06T03:25:32;5.80;99.90
4739;DHT22;2383;48.632;10.156;2024-01-06T03:29:34;5.80;99.90
4739;DHT22;2383;48.632;10.156;2024-01-06T03:33:36;5.70;99.90
4739;DHT22;2383;48.632;10.156;2024-01-06T03:37:38;5.90;99.90
4739;DHT22;2383;48.632;10.156;2024-01-06T03:41:40;5.60;99.90
4739;DHT22;2383;48.632;10.156;2024-01-06T03:45:42;5.70;99.90
4739;DHT22;2383;48.632;10.156;2024-01-06T03:49:45;5.70;99.90
4739;DHT22;2383;48.632;10.156;2024-01-06T03:53:47;5.70;99.90
4739;DHT22;2383;48.632;10.156;2024-01-06T03:57:49;3.40;99.90
4739;DHT22;2383;48.632;10.156;2024-01-06T04:01:51;4.20;99.90
4739;DHT22;2383;48.632;10.156;2024-01-06T04:05:53;4.90;99.90
4739;DHT22;2383;48.632;10.156;2024-01-06T04:09:55;5.40;99.90
4739;DHT22;2383;48.632;10.156;2024-01-06T04:13:57;5.20;99.90
4739;DHT22;2383;48.632;10.156;2024-01-06T04:18:02;5.30;99.90
4739;DHT22;2383;48.632;10.156;2024-01-06T04:22:05;5.10;99.90
4739;DHT22;2383;48.632;10.156;2024-01-06T04:26:07;5.30;99.90
4739;DHT22;2383;48.632;10.156;2024-01-06T04:30:09;5.40;99.90
4739;DHT22;2383;48.632;10.156;2024-01-06T04:34:11;5.40;99.90
4739;DHT22;2383;48.632;10.156;2024-01-06T04:38:13;5.40;99.90
4739;DHT22;2383;48.632;10.156;2024-01-06T04:42:15;5.50;99.90
4739;DHT22;2383;48.632;10.156;2024-01-06T04:46:17;5.50;99.90
4739;DHT22;2383;48.632;10.156;2024-01-06T04:50:19;5.50;99.90
4739;DHT22;2383;48.632;10.156;2024-01-06T04:54:21;5.40;99.90
4739;DHT22;2383;48.632;10.156;2024-01-06T04:58:23;5.50;99.90
4739;DHT22;2383;48.632;10.156;2024-01-06T05:02:25;5.30;99.90
4739;DHT22;2383;48.632;10.156;2024-01-06T05:06:27;5.20;99.90
4739;DHT22;2383;48.632;10.156;2024-01-06T05:10:29;5.20;99.90
4739;DHT22;2383;48.632;10.156;2024-01-06T05:14:31;5.20;99.90
4739;DHT22;2383;48.632;10.156;2024-01-06T05:18:33;5.30;99.90
4739;DHT22;2383;48.632;10.156;2024-01-06T05:22:35;5.40;99.90
4739;DHT22;2383;48.632;10.156;2024-01-06T05:26:37;5.30;99.90
4739;DHT22;2383;48.632;10.156;2024-01-06T05:30:38;5.30;99.90
4739;DHT22;2383;48.632;10.156;2024-01-06T05:34:40;5.30;99.90
4739;DHT22;2383;48.632;10.156;2024-01-06T05:38:42;5.30;99.90
4739;DHT22;2383;48.632;10.156;2024-01-06T05:42:44;5.30;99.90
4739;DHT22;2383;48.632;10.156;2024-01-06T05:46:46;5.30;99.90
4739;DHT22;2383;48.632;10.156;2024-01-06T05:50:48;5.30;99.90
4739;DHT22;2383;48.632;10.156;2024-01-06T05:54:50;5.30;99.90
4739;DHT22;2383;48.632;10.156;2024-01-06T05:58:53;5.50;99.90
4739;DHT22;2383;48.632;10.156;2024-01-06T06:02:55;5.30;99.90
4739;DHT22;2383;48.632;10.156;2024-01-06T06:06:57;5.40;99.90
4739;DHT22;2383;48.632;10.156;2024-01-06T06:11:02;5.40;99.90
4739;DHT22;2383;48.632;10.156;2024-01-06T06:15:12;5.20;99.90
4739;DHT22;2383;48.632;10.156;2024-01-06T06:19:14;5.40;99.90
4739;DHT22;2383;48.632;10.156;2024-01-06T06:23:16;5.30;99.90
4739;DHT22;2383;48.632;10.156;2024-01-06T06:27:18;5.30;99.90
4739;DHT22;2383;48.632;10.156;2024-01-06T06:31:20;5.30;99.90
4739;DHT22;2383;48.632;10.156;2024-01-06T06:35:23;5.40;99.90
4739;DHT22;2383;48.632;10.156;2024-01-06T06:39:25;5.20;99.90
4739;DHT22;2383;48.632;10.156;2024-01-06T06:43:28;5.40;99.90
4739;DHT22;2383;48.632;10.156;2024-01-06T06:47:30;5.20;99.90
4739;DHT22;2383;48.632;10.156;2024-01-06T06:51:32;5.50;99.90
4739;DHT22;2383;48.632;10.156;2024-01-06T06:55:34;5.20;99.90
4739;DHT22;2383;48.632;10.156;2024-01-06T06:59:36;5.20;99.90
4739;DHT22;2383;48.632;10.156;2024-01-06T07:03:38;5.20;99.90
4739;DHT22;2383;48.632;10.156;2024-01-06T07:07:40;5.10;99.90
4739;DHT22;2383;48.632;10.156;2024-01-06T07:11:42;5.10;99.90
4739;DHT22;2383;48.632;10.156;2024-01-06T07:15:44;5.10;99.90
4739;DHT22;2383;48.632;10.156;2024-01-06T07:19:46;5.10;99.90
4739;DHT22;2383;48.632;10.156;2024-01-06T07:23:48;5.10;99.90
4739;DHT22;2383;48.632;10.156;2024-01-06T07:27:50;5.10;99.90
4739;DHT22;2383;48.632;10.156;2024-01-06T07:31:56;5.10;99.90
4739;DHT22;2383;48.632;10.156;2024-01-06T07:35:58;5.00;99.90
4739;DHT22;2383;48.632;10.156;2024-01-06T07:40:00;5.20;99.90
4739;DHT22;2383;48.632;10.156;2024-01-06T07:44:03;5.00;99.90
4739;DHT22;2383;48.632;10.156;2024-01-06T07:48:05;5.00;99.90
4739;DHT22;2383;48.632;10.156;2024-01-06T07:52:07;5.10;99.90
4739;DHT22;2383;48.632;10.156;2024-01-06T07:56:09;5.20;99.90
4739;DHT22;2383;48.632;10.156;2024-01-06T08:00:11;5.10;99.90
4739;DHT22;2383;48.632;10.156;2024-01-06T08:04:16;5.10;99.90
4739;DHT22;2383;48.632;10.156;2024-01-06T08:08:18;5.00;99.90
4739;DHT22;2383;48.632;10.156;2024-01-06T08:12:21;5.10;99.90
4739;DHT22;2383;48.632;10.156;2024-01-06T08:16:23;5.10;99.90
4739;DHT22;2383;48.632;10.156;2024-01-06T08:20:25;5.10;99.90
4739;DHT22;2383;48.632;10.156;2024-01-06T08:24:27;5.10;99.90
4739;DHT22;2383;48.632;10.156;2024-01-06T08:28:29;5.20;99.90
4739;DHT22;2383;48.632;10.156;2024-01-06T08:32:31;5.10;99.90
4739;DHT22;2383;48.632;10.156;2024-01-06T08:36:34;5.30;99.90
4739;DHT22;2383;48.632;10.156;2024-01-06T08:40:36;5.30;99.90
4739;DHT22;2383;48.632;10.156;2024-01-06T08:44:38;5.40;99.90
4739;DHT22;2383;48.632;10.156;2024-01-06T08:48:40;5.50;99.90
4739;DHT22;2383;48.632;10.156;2024-01-06T08:52:42;5.50;99.90
4739;DHT22;2383;48.632;10.156;2024-01-06T08:56:44;5.60;99.90
4739;DHT22;2383;48.632;10.156;2024-01-06T09:00:46;5.60;99.90
4739;DHT22;2383;48.632;10.156;2024-01-06T09:04:48;5.70;99.90
4739;DHT22;2383;48.632;10.156;2024-01-06T09:08:50;5.80;99.90
4739;DHT22;2383;48.632;10.156;2024-01-06T09:12:52;5.70;99.90
4739;DHT22;2383;48.632;10.156;2024-01-06T09:16:54;5.80;99.90
4739;DHT22;2383;48.632;10.156;2024-01-06T09:20:56;5.80;99.90
4739;DHT22;2383;48.632;10.156;2024-01-06T09:24:58;5.50;99.90
4739;DHT22;2383;48.632;10.156;2024-01-06T09:29:01;5.60;99.90
4739;DHT22;2383;48.632;10.156;2024-01-06T09:33:04;5.30;99.90
4739;DHT22;2383;48.632;10.156;2024-01-06T09:37:07;5.50;99.90
4739;DHT22;2383;48.632;10.156;2024-01-06T09:41:09;5.60;99.90
4739;DHT22;2383;48.632;10.156;2024-01-06T09:45:11;5.70;99.90
4739;DHT22;2383;48.632;10.156;2024-01-06T09:49:13;5.70;99.90
4739;DHT22;2383;48.632;10.156;2024-01-06T09:53:17;5.90;99.90
4739;DHT22;2383;48.632;10.156;2024-01-06T09:57:20;5.80;99.90
4739;DHT22;2383;48.632;10.156;2024-01-06T10:01:22;5.80;99.90
4739;DHT22;2383;48.632;10.156;2024-01-06T10:05:24;5.80;99.90
4739;DHT22;2383;48.632;10.156;2024-01-06T10:09:27;5.10;99.90
4739;DHT22;2383;48.632;10.156;2024-01-06T10:13:30;4.80;99.90
4739;DHT22;2383;48.632;10.156;2024-01-06T10:17:32;4.70;99.90
4739;DHT22;2383;48.632;10.156;2024-01-06T10:21:34;4.90;99.90
4739;DHT22;2383;48.632;10.156;2024-01-06T10:25:36;5.40;99.90
4739;DHT22;2383;48.632;10.156;2024-01-06T10:29:38;5.80;99.90
4739;DHT22;2383;48.632;10.156;2024-01-06T10:33:40;5.20;99.90
4739;DHT22;2383;48.632;10.156;2024-01-06T10:37:43;5.20;99.90
4739;DHT22;2383;48.632;10.156;2024-01-06T10:41:47;5.40;99.90
4739;DHT22;2383;48.632;10.156;2024-01-06T10:45:50;5.20;99.90
4739;DHT22;2383;48.632;10.156;2024-01-06T10:49:53;5.20;99.90
4739;DHT22;2383;48.632;10.156;2024-01-06T10:54:02;5.10;99.90
4739;DHT22;2383;48.632;10.156;2024-01-06T10:58:04;5.10;99.90
4739;DHT22;2383;48.632;10.156;2024-01-06T11:02:09;5.00;99.90
4739;DHT22;2383;48.632;10.156;2024-01-06T11:06:12;4.70;99.90
4739;DHT22;2383;48.632;10.156;2024-01-06T11:10:16;4.60;99.80
4739;DHT22;2383;48.632;10.156;2024-01-06T11:18:39;4.90;99.90
4739;DHT22;2383;48.632;10.156;2024-01-06T11:22:42;4.70;99.90
4739;DHT22;2383;48.632;10.156;2024-01-06T11:26:45;4.80;99.90
4739;DHT22;2383;48.632;10.156;2024-01-06T11:30:47;4.80;99.80
4739;DHT22;2383;48.632;10.156;2024-01-06T11:35:15;5.30;99.60
4739;DHT22;2383;48.632;10.156;2024-01-06T11:39:37;5.00;99.90
4739;DHT22;2383;48.632;10.156;2024-01-06T11:43:42;4.60;99.90
4739;DHT22;2383;48.632;10.156;2024-01-06T11:47:48;5.00;99.80
4739;DHT22;2383;48.632;10.156;2024-01-06T11:51:50;5.40;99.60
4739;DHT22;2383;48.632;10.156;2024-01-06T11:55:52;5.40;99.20
4739;DHT22;2383;48.632;10.156;2024-01-06T11:59:55;5.20;99.30
4739;DHT22;2383;48.632;10.156;2024-01-06T12:03:56;5.20;99.20
4739;DHT22;2383;48.632;10.156;2024-01-06T12:08:01;5.60;99.00
4739;DHT22;2383;48.632;10.156;2024-01-06T12:12:05;5.20;99.10
4739;DHT22;2383;48.632;10.156;2024-01-06T12:16:08;5.50;99.20
4739;DHT22;2383;48.632;10.156;2024-01-06T12:20:11;5.80;98.90
4739;DHT22;2383;48.632;10.156;2024-01-06T12:24:17;5.80;98.70
4739;DHT22;2383;48.632;10.156;2024-01-06T12:28:22;5.80;99.00
4739;DHT22;2383;48.632;10.156;2024-01-06T12:32:24;5.70;98.70
4739;DHT22;2383;48.632;10.156;2024-01-06T12:36:27;5.20;98.90
4739;DHT22;2383;48.632;10.156;2024-01-06T12:40:29;4.40;99.30
4739;DHT22;2383;48.632;10.156;2024-01-06T12:44:31;4.80;99.00
4739;DHT22;2383;48.632;10.156;2024-01-06T12:48:35;4.40;99.70
4739;DHT22;2383;48.632;10.156;2024-01-06T12:52:37;4.30;99.90
4739;DHT22;2383;48.632;10.156;2024-01-06T12:56:41;4.60;99.90
4739;DHT22;2383;48.632;10.156;2024-01-06T13:00:43;4.90;99.90
4739;DHT22;2383;48.632;10.156;2024-01-06T13:04:45;5.30;99.90
4739;DHT22;2383;48.632;10.156;2024-01-06T13:08:47;5.40;99.90
4739;DHT22;2383;48.632;10.156;2024-01-06T13:12:49;5.50;99.90
4739;DHT22;2383;48.632;10.156;2024-01-06T13:16:54;5.40;99.90
4739;DHT22;2383;48.632;10.156;2024-01-06T13:20:56;5.20;99.90
4739;DHT22;2383;48.632;10.156;2024-01-06T13:24:58;5.20;99.90
4739;DHT22;2383;48.632;10.156;2024-01-06T13:29:01;5.40;99.90
4739;DHT22;2383;48.632;10.156;2024-01-06T13:33:04;4.40;99.90
4739;DHT22;2383;48.632;10.156;2024-01-06T13:37:07;3.90;99.90
4739;DHT22;2383;48.632;10.156;2024-01-06T13:41:09;4.30;99.90
4739;DHT22;2383;48.632;10.156;2024-01-06T13:45:11;4.20;99.90
4739;DHT22;2383;48.632;10.156;2024-01-06T13:49:13;4.10;99.90
4739;DHT22;2383;48.632;10.156;2024-01-06T13:53:15;4.20;99.90
4739;DHT22;2383;48.632;10.156;2024-01-06T13:57:18;2.90;99.90
4739;DHT22;2383;48.632;10.156;2024-01-06T14:01:20;4.00;99.90
4739;DHT22;2383;48.632;10.156;2024-01-06T14:05:22;4.50;99.90
4739;DHT22;2383;48.632;10.156;2024-01-06T14:09:24;4.20;99.90
4739;DHT22;2383;48.632;10.156;2024-01-06T14:13:27;4.70;99.90
4739;DHT22;2383;48.632;10.156;2024-01-06T14:17:33;5.00;99.90
4739;DHT22;2383;48.632;10.156;2024-01-06T14:21:35;4.70;99.90
4739;DHT22;2383;48.632;10.156;2024-01-06T14:25:37;4.10;99.90
4739;DHT22;2383;48.632;10.156;2024-01-06T14:29:39;3.40;99.90
4739;DHT22;2383;48.632;10.156;2024-01-06T14:33:41;3.70;99.90
4739;DHT22;2383;48.632;10.156;2024-01-06T14:37:43;3.90;99.90
4739;DHT22;2383;48.632;10.156;2024-01-06T14:41:46;4.20;99.90
4739;DHT22;2383;48.632;10.156;2024-01-06T14:45:48;4.50;99.90
4739;DHT22;2383;48.632;10.156;2024-01-06T14:49:50;3.90;99.90
4739;DHT22;2383;48.632;10.156;2024-01-06T14:53:52;4.30;99.90
4739;DHT22;2383;48.632;10.156;2024-01-06T14:57:54;4.30;99.90
4739;DHT22;2383;48.632;10.156;2024-01-06T15:01:57;4.30;99.90
4739;DHT22;2383;48.632;10.156;2024-01-06T15:05:59;3.40;99.90
4739;DHT22;2383;48.632;10.156;2024-01-06T15:10:02;3.20;99.90
4739;DHT22;2383;48.632;10.156;2024-01-06T15:14:05;3.80;99.90
4739;DHT22;2383;48.632;10.156;2024-01-06T15:18:10;4.40;99.90
4739;DHT22;2383;48.632;10.156;2024-01-06T15:22:12;4.40;99.90
4739;DHT22;2383;48.632;10.156;2024-01-06T15:26:21;4.50;99.90
4739;DHT22;2383;48.632;10.156;2024-01-06T15:30:23;4.90;99.90
4739;DHT22;2383;48.632;10.156;2024-01-06T15:34:25;5.00;99.90
4739;DHT22;2383;48.632;10.156;2024-01-06T15:38:28;5.00;99.90
4739;DHT22;2383;48.632;10.156;2024-01-06T15:42:31;4.70;99.90
4739;DHT22;2383;48.632;10.156;2024-01-06T15:46:36;4.20;99.90
4739;DHT22;2383;48.632;10.156;2024-01-06T15:50:38;4.10;99.90
4739;DHT22;2383;48.632;10.156;2024-01-06T15:54:39;4.40;99.90
4739;DHT22;2383;48.632;10.156;2024-01-06T15:58:42;4.10;99.90
4739;DHT22;2383;48.632;10.156;2024-01-06T16:02:44;4.50;99.90
4739;DHT22;2383;48.632;10.156;2024-01-06T16:06:46;4.60;99.90
4739;DHT22;2383;48.632;10.156;2024-01-06T16:10:49;4.80;99.90
4739;DHT22;2383;48.632;10.156;2024-01-06T16:14:51;4.70;99.90
4739;DHT22;2383;48.632;10.156;2024-01-06T16:18:53;4.60;99.90
4739;DHT22;2383;48.632;10.156;2024-01-06T16:22:55;4.80;99.90
4739;DHT22;2383;48.632;10.156;2024-01-06T16:26:58;4.70;99.90
4739;DHT22;2383;48.632;10.156;2024-01-06T16:31:00;4.50;99.90
4739;DHT22;2383;48.632;10.156;2024-01-06T16:35:02;4.80;99.90
4739;DHT22;2383;48.632;10.156;2024-01-06T16:39:04;4.70;99.90
4739;DHT22;2383;48.632;10.156;2024-01-06T16:43:06;4.50;99.90
4739;DHT22;2383;48.632;10.156;2024-01-06T16:47:08;4.50;99.90
4739;DHT22;2383;48.632;10.156;2024-01-06T16:51:10;4.80;99.90
4739;DHT22;2383;48.632;10.156;2024-01-06T16:55:11;5.20;99.90
4739;DHT22;2383;48.632;10.156;2024-01-06T16:59:14;5.10;99.90
4739;DHT22;2383;48.632;10.156;2024-01-06T17:03:16;5.40;99.90
4739;DHT22;2383;48.632;10.156;2024-01-06T17:07:18;5.10;99.90
4739;DHT22;2383;48.632;10.156;2024-01-06T17:11:20;4.70;99.90
4739;DHT22;2383;48.632;10.156;2024-01-06T17:15:23;4.30;99.90
4739;DHT22;2383;48.632;10.156;2024-01-06T17:19:28;4.70;99.90
4739;DHT22;2383;48.632;10.156;2024-01-06T17:23:30;4.40;99.90
4739;DHT22;2383;48.632;10.156;2024-01-06T17:27:32;4.50;99.90
4739;DHT22;2383;48.632;10.156;2024-01-06T17:31:33;4.80;99.90
4739;DHT22;2383;48.632;10.156;2024-01-06T17:35:36;4.90;99.90
4739;DHT22;2383;48.632;10.156;2024-01-06T17:39:38;4.70;99.90
4739;DHT22;2383;48.632;10.156;2024-01-06T17:43:40;4.80;99.90
4739;DHT22;2383;48.632;10.156;2024-01-06T17:47:42;4.90;99.90
4739;DHT22;2383;48.632;10.156;2024-01-06T17:51:46;4.80;99.90
4739;DHT22;2383;48.632;10.156;2024-01-06T17:55:48;4.60;99.90
4739;DHT22;2383;48.632;10.156;2024-01-06T17:59:50;4.50;99.90
4739;DHT22;2383;48.632;10.156;2024-01-06T18:03:58;4.70;99.90
4739;DHT22;2383;48.632;10.156;2024-01-06T18:08:00;4.80;99.90
4739;DHT22;2383;48.632;10.156;2024-01-06T18:12:02;4.70;99.90
4739;DHT22;2383;48.632;10.156;2024-01-06T18:16:05;4.80;99.90
4739;DHT22;2383;48.632;10.156;2024-01-06T18:20:08;4.90;99.90
4739;DHT22;2383;48.632;10.156;2024-01-06T18:24:10;4.90;99.90
4739;DHT22;2383;48.632;10.156;2024-01-06T18:28:12;5.00;99.90
4739;DHT22;2383;48.632;10.156;2024-01-06T18:32:14;5.00;99.90
4739;DHT22;2383;48.632;10.156;2024-01-06T18:36:16;5.10;99.90
4739;DHT22;2383;48.632;10.156;2024-01-06T18:40:18;5.00;99.90
4739;DHT22;2383;48.632;10.156;2024-01-06T18:44:21;5.30;99.90
4739;DHT22;2383;48.632;10.156;2024-01-06T18:48:22;4.90;99.90
4739;DHT22;2383;48.632;10.156;2024-01-06T18:52:24;5.00;99.90
4739;DHT22;2383;48.632;10.156;2024-01-06T18:56:26;5.10;99.90
4739;DHT22;2383;48.632;10.156;2024-01-06T19:00:29;5.10;99.90
4739;DHT22;2383;48.632;10.156;2024-01-06T19:04:31;5.30;99.90
4739;DHT22;2383;48.632;10.156;2024-01-06T19:08:33;5.00;99.90
4739;DHT22;2383;48.632;10.156;2024-01-06T19:12:35;4.90;99.90
4739;DHT22;2383;48.632;10.156;2024-01-06T19:16:37;5.00;99.90
4739;DHT22;2383;48.632;10.156;2024-01-06T19:20:39;5.00;99.90
4739;DHT22;2383;48.632;10.156;2024-01-06T19:24:41;5.00;99.90
4739;DHT22;2383;48.632;10.156;2024-01-06T19:28:44;5.00;99.90
4739;DHT22;2383;48.632;10.156;2024-01-06T19:32:46;4.90;99.90
4739;DHT22;2383;48.632;10.156;2024-01-06T19:36:48;4.90;99.90
4739;DHT22;2383;48.632;10.156;2024-01-06T19:40:50;4.80;99.90
4739;DHT22;2383;48.632;10.156;2024-01-06T19:44:52;4.80;99.90
4739;DHT22;2383;48.632;10.156;2024-01-06T19:48:55;4.90;99.90
4739;DHT22;2383;48.632;10.156;2024-01-06T19:53:03;4.90;99.90
4739;DHT22;2383;48.632;10.156;2024-01-06T19:57:06;5.00;99.90
4739;DHT22;2383;48.632;10.156;2024-01-06T20:01:09;5.00;99.90
4739;DHT22;2383;48.632;10.156;2024-01-06T20:05:12;5.00;99.90
4739;DHT22;2383;48.632;10.156;2024-01-06T20:09:14;5.00;99.90
4739;DHT22;2383;48.632;10.156;2024-01-06T20:13:16;5.00;99.90
4739;DHT22;2383;48.632;10.156;2024-01-06T20:17:19;5.10;99.90
4739;DHT22;2383;48.632;10.156;2024-01-06T20:21:20;5.10;99.90
4739;DHT22;2383;48.632;10.156;2024-01-06T20:25:23;5.10;99.90
4739;DHT22;2383;48.632;10.156;2024-01-06T20:29:25;5.00;99.90
4739;DHT22;2383;48.632;10.156;2024-01-06T20:33:27;5.20;99.90
4739;DHT22;2383;48.632;10.156;2024-01-06T20:37:34;4.90;99.90
4739;DHT22;2383;48.632;10.156;2024-01-06T20:41:36;4.90;99.90
4739;DHT22;2383;48.632;10.156;2024-01-06T20:45:38;4.90;99.90
4739;DHT22;2383;48.632;10.156;2024-01-06T20:49:41;5.10;99.90
4739;DHT22;2383;48.632;10.156;2024-01-06T20:53:43;4.90;99.90
4739;DHT22;2383;48.632;10.156;2024-01-06T20:57:45;4.90;99.90
4739;DHT22;2383;48.632;10.156;2024-01-06T21:01:49;4.70;99.90
4739;DHT22;2383;48.632;10.156;2024-01-06T21:05:51;4.70;99.90
4739;DHT22;2383;48.632;10.156;2024-01-06T21:09:53;4.70;99.90
4739;DHT22;2383;48.632;10.156;2024-01-06T21:13:55;4.90;99.90
4739;DHT22;2383;48.632;10.156;2024-01-06T21:17:57;4.70;99.90
4739;DHT22;2383;48.632;10.156;2024-01-06T21:21:59;4.80;99.90
4739;DHT22;2383;48.632;10.156;2024-01-06T21:26:01;4.80;99.90
4739;DHT22;2383;48.632;10.156;2024-01-06T21:30:06;4.60;99.90
4739;DHT22;2383;48.632;10.156;2024-01-06T21:34:09;4.60;99.90
4739;DHT22;2383;48.632;10.156;2024-01-06T21:38:11;4.60;99.90
4739;DHT22;2383;48.632;10.156;2024-01-06T21:42:16;4.70;99.90
4739;DHT22;2383;48.632;10.156;2024-01-06T21:46:18;4.80;99.90
4739;DHT22;2383;48.632;10.156;2024-01-06T21:50:20;4.90;99.90
4739;DHT22;2383;48.632;10.156;2024-01-06T21:54:22;4.80;99.90
4739;DHT22;2383;48.632;10.156;2024-01-06T21:58:24;4.50;99.90
4739;DHT22;2383;48.632;10.156;2024-01-06T22:02:26;4.70;99.90
4739;DHT22;2383;48.632;10.156;2024-01-06T22:06:28;4.50;99.90
4739;DHT22;2383;48.632;10.156;2024-01-06T22:10:31;4.60;99.90
4739;DHT22;2383;48.632;10.156;2024-01-06T22:14:36;4.80;99.90
4739;DHT22;2383;48.632;10.156;2024-01-06T22:18:38;4.90;99.90
4739;DHT22;2383;48.632;10.156;2024-01-06T22:22:40;4.90;99.90
4739;DHT22;2383;48.632;10.156;2024-01-06T22:26:42;5.00;99.90
4739;DHT22;2383;48.632;10.156;2024-01-06T22:30:44;5.10;99.90
4739;DHT22;2383;48.632;10.156;2024-01-06T22:34:46;5.00;99.90
4739;DHT22;2383;48.632;10.156;2024-01-06T22:38:48;4.90;99.90
4739;DHT22;2383;48.632;10.156;2024-01-06T22:42:56;4.90;99.90
4739;DHT22;2383;48.632;10.156;2024-01-06T22:46:58;4.90;99.90
4739;DHT22;2383;48.632;10.156;2024-01-06T22:51:01;4.70;99.90
4739;DHT22;2383;48.632;10.156;2024-01-06T22:55:04;4.80;99.90
4739;DHT22;2383;48.632;10.156;2024-01-06T22:59:06;4.10;99.90
4739;DHT22;2383;48.632;10.156;2024-01-06T23:03:08;4.40;99.90
4739;DHT22;2383;48.632;10.156;2024-01-06T23:07:11;4.60;99.90
4739;DHT22;2383;48.632;10.156;2024-01-06T23:11:13;4.50;99.90
4739;DHT22;2383;48.632;10.156;2024-01-06T23:15:18;3.90;99.90
4739;DHT22;2383;48.632;10.156;2024-01-06T23:19:20;4.00;99.90
4739;DHT22;2383;48.632;10.156;2024-01-06T23:23:23;4.10;99.90
4739;DHT22;2383;48.632;10.156;2024-01-06T23:27:26;4.10;99.90
4739;DHT22;2383;48.632;10.156;2024-01-06T23:31:28;4.30;99.90
4739;DHT22;2383;48.632;10.156;2024-01-06T23:35:30;4.50;99.90
4739;DHT22;2383;48.632;10.156;2024-01-06T23:39:32;4.50;99.90
4739;DHT22;2383;48.632;10.156;2024-01-06T23:43:34;4.60;99.90
4739;DHT22;2383;48.632;10.156;2024-01-06T23:47:36;4.60;99.90
4739;DHT22;2383;48.632;10.156;2024-01-06T23:51:38;4.70;99.90
4739;DHT22;2383;48.632;10.156;2024-01-06T23:55:40;5.10;99.90
4739;DHT22;2383;48.632;10.156;2024-01-06T23:59:42;4.80;99.90
